Time;durP1;ratioP1;P1;durP2;ratioP2;P2;SDS_P1;SDS_P2;PMS_P1;PMS_P2;Temp;Humidity;BMP_temperature;BMP_pressure;BME280_temperature;BME280_humidity;BME280_pressure;Samples;Min_cycle;Max_cycle;Signal;HPM_P1;HPM_P2
2022/01/04 00:00:11;;;;;;;6.50;5.30;;;;;;;-5.93;78.96;99618.97;5072143;28;20079;-57
2022/01/04 00:02:36;;;;;;;8.48;5.05;;;;;;;-5.90;77.98;99624.91;5075636;28;20093;-57
2022/01/04 00:05:04;;;;;;;6.80;4.90;;;;;;;-5.96;78.71;99611.38;5075651;28;20064;-58
2022/01/04 00:07:31;;;;;;;6.38;4.90;;;;;;;-6.04;78.39;99613.56;5075391;28;20528;-57
2022/01/04 00:09:56;;;;;;;9.45;5.05;;;;;;;-6.52;78.79;99539.41;5075311;28;20036;-55
2022/01/04 00:15:07;;;;;;;6.70;4.47;;;;;;;-6.08;78.70;99606.88;5075707;28;20047;-57
2022/01/04 00:17:33;;;;;;;6.85;5.60;;;;;;;-6.10;79.00;99587.13;5075258;28;20040;-58
2022/01/04 00:19:58;;;;;;;8.88;5.03;;;;;;;-6.23;78.33;99563.69;5075427;28;20078;-57
2022/01/04 00:22:24;;;;;;;12.57;5.80;;;;;;;-6.10;78.72;99598.34;5075276;28;20040;-58
2022/01/04 00:24:49;;;;;;;7.97;5.13;;;;;;;-6.05;78.64;99603.28;5074724;28;20028;-56
2022/01/04 00:27:15;;;;;;;6.60;5.43;;;;;;;-6.06;78.64;99615.41;5073641;28;20036;-58
2022/01/04 00:29:41;;;;;;;9.23;5.73;;;;;;;-6.10;78.64;99603.53;5074760;28;20135;-56
2022/01/04 00:32:07;;;;;;;12.57;5.13;;;;;;;-6.05;78.56;99604.13;5074928;28;20059;-58
2022/01/04 00:34:32;;;;;;;8.98;6.47;;;;;;;-6.05;79.06;99611.06;5075325;28;20039;-57
2022/01/04 00:36:58;;;;;;;8.67;5.03;;;;;;;-6.04;78.98;99613.56;5073621;28;20033;-57
2022/01/04 00:39:23;;;;;;;8.03;6.17;;;;;;;-6.12;79.36;99610.56;5074446;28;20115;-59
2022/01/04 00:41:49;;;;;;;6.57;4.57;;;;;;;-6.15;79.16;99600.34;5074596;28;20047;-57
2022/01/04 00:44:14;;;;;;;7.10;6.07;;;;;;;-6.16;79.15;99598.69;5075132;28;20047;-59
2022/01/04 00:46:40;;;;;;;6.60;5.63;;;;;;;-6.06;78.88;99606.81;5074800;28;20052;-58
2022/01/04 00:49:11;;;;;;;6.90;5.03;;;;;;;-6.41;78.83;99556.91;5074594;28;20121;-59
2022/01/04 00:51:43;;;;;;;7.65;6.18;;;;;;;-6.05;78.82;99596.34;5074588;28;20135;-58
2022/01/04 00:54:09;;;;;;;7.10;4.88;;;;;;;-5.90;78.80;99606.75;5074482;28;20392;-61
2022/01/04 00:56:35;;;;;;;9.18;5.63;;;;;;;-5.96;78.93;99589.81;5074640;28;20067;-58
2022/01/04 00:59:01;;;;;;;12.65;5.82;;;;;;;-5.94;78.80;99588.78;5074615;28;20036;-58
2022/01/04 01:01:27;;;;;;;6.37;4.43;;;;;;;-5.90;78.57;99575.66;5074544;28;20146;-57
2022/01/04 01:03:53;;;;;;;8.30;5.23;;;;;;;-5.80;78.20;99590.53;5074316;28;20127;-58
2022/01/04 01:06:19;;;;;;;6.43;4.95;;;;;;;-6.00;78.01;99573.59;5074212;28;20316;-54
2022/01/04 01:08:45;;;;;;;7.40;5.15;;;;;;;-5.95;78.58;99587.13;5074095;28;20074;-57
2022/01/04 01:11:10;;;;;;;8.57;5.57;;;;;;;-5.95;78.76;99575.91;5074022;28;20068;-58
2022/01/04 01:13:37;;;;;;;8.37;5.10;;;;;;;-5.96;78.16;99562.13;5074360;28;20098;-60
2022/01/04 01:16:03;;;;;;;12.15;5.65;;;;;;;-6.20;78.67;99523.81;5074260;28;20514;-60
2022/01/04 01:18:29;;;;;;;7.13;4.68;;;;;;;-5.99;78.39;99574.44;5074187;28;20070;-57
2022/01/04 01:20:54;;;;;;;9.70;5.23;;;;;;;-6.08;78.90;99549.00;5074764;28;20032;-59
2022/01/04 01:23:20;;;;;;;6.73;4.77;;;;;;;-6.00;78.46;99565.81;5074078;28;20487;-56
2022/01/04 01:25:46;;;;;;;7.30;5.03;;;;;;;-6.10;78.88;99556.88;5074328;28;20036;-61
2022/01/04 01:28:14;;;;;;;9.13;5.05;;;;;;;-6.06;78.87;99563.56;5074059;28;20036;-57
2022/01/04 01:30:44;;;;;;;9.77;5.28;;;;;;;-5.95;78.88;99574.16;5073803;28;20442;-56
2022/01/04 01:33:10;;;;;;;8.48;6.05;;;;;;;-5.92;78.80;99565.38;5073736;28;20048;-57
2022/01/04 01:35:37;;;;;;;10.43;7.07;;;;;;;-5.88;78.22;99566.00;5073524;28;20032;-60
2022/01/04 01:38:03;;;;;;;10.48;5.50;;;;;;;-5.89;78.89;99567.75;5073802;28;20146;-57
2022/01/04 01:40:29;;;;;;;8.03;5.77;;;;;;;-5.82;78.75;99578.59;5074213;28;20032;-54
2022/01/04 01:42:55;;;;;;;6.23;5.03;;;;;;;-5.90;78.11;99554.91;5074044;28;20274;-53
2022/01/04 01:45:23;;;;;;;7.38;5.43;;;;;;;-5.85;78.43;99560.63;5074061;28;20348;-53
2022/01/04 01:47:51;;;;;;;8.18;5.22;;;;;;;-5.81;78.34;99572.47;5073803;28;20048;-55
2022/01/04 01:50:18;;;;;;;7.22;5.32;;;;;;;-5.84;78.62;99572.66;5073552;28;20048;-58
2022/01/04 01:52:48;;;;;;;10.02;6.22;;;;;;;-5.93;77.89;99558.50;5074051;28;20047;-54
2022/01/04 01:55:16;;;;;;;8.63;5.68;;;;;;;-5.94;78.92;99572.41;5074299;28;20067;-58
2022/01/04 01:57:42;;;;;;;6.95;5.13;;;;;;;-5.94;78.44;99573.22;5072481;28;20047;-51
2022/01/04 02:00:10;;;;;;;7.73;5.43;;;;;;;-5.96;78.91;99564.72;5073953;28;20127;-56
2022/01/04 02:02:36;;;;;;;7.97;5.40;;;;;;;-5.96;78.94;99575.09;5073534;28;20059;-57
2022/01/04 02:05:03;;;;;;;10.33;5.93;;;;;;;-6.01;78.55;99566.72;5073255;28;20500;-59
2022/01/04 02:07:30;;;;;;;9.15;6.15;;;;;;;-6.08;79.21;99560.22;5073388;28;20496;-58
2022/01/04 02:10:05;;;;;;;7.88;5.30;;;;;;;-6.16;79.54;99557.22;5073848;28;20040;-53
2022/01/04 02:12:46;;;;;;;8.02;4.95;;;;;;;-6.41;79.77;99515.47;5073697;28;20036;-56
2022/01/04 02:15:18;;;;;;;7.05;5.22;;;;;;;-6.20;79.87;99558.31;5073610;28;20032;-61
2022/01/04 02:17:44;;;;;;;7.82;5.75;;;;;;;-6.17;79.75;99546.94;5073404;28;20059;-57
2022/01/04 02:20:11;;;;;;;8.17;5.40;;;;;;;-6.16;79.23;99546.84;5073108;28;20407;-58
2022/01/04 02:22:37;;;;;;;10.75;6.10;;;;;;;-6.03;79.67;99550.44;5072851;28;20036;-58
2022/01/04 02:25:04;;;;;;;9.70;5.87;;;;;;;-6.01;78.71;99550.34;5072621;28;20388;-57
2022/01/04 02:27:33;;;;;;;8.40;5.80;;;;;;;-6.00;78.57;99552.84;5072591;28;20262;-59
2022/01/04 02:29:58;;;;;;;12.15;5.47;;;;;;;-5.99;79.49;99553.69;5072844;28;20044;-56
2022/01/04 02:32:24;;;;;;;5.87;5.20;;;;;;;-6.01;79.16;99556.38;5073053;28;20028;-59
2022/01/04 02:34:51;;;;;;;7.77;5.13;;;;;;;-6.06;78.40;99542.84;5072774;28;20043;-58
2022/01/04 02:37:22;;;;;;;8.52;6.18;;;;;;;-5.98;78.43;99545.81;5072595;28;20040;-58
2022/01/04 02:39:49;;;;;;;6.05;4.80;;;;;;;-5.94;78.48;99546.47;5072865;28;20080;-59
2022/01/04 02:42:15;;;;;;;6.80;5.25;;;;;;;-5.92;78.92;99557.59;5072585;28;20208;-54
2022/01/04 02:44:43;;;;;;;8.80;5.22;;;;;;;-6.00;78.26;99555.44;5072557;28;20503;-61
2022/01/04 02:47:10;;;;;;;6.43;5.13;;;;;;;-5.99;78.76;99558.88;5072511;28;20052;-54
2022/01/04 02:49:35;;;;;;;8.00;4.53;;;;;;;-6.05;78.75;99541.91;5072797;28;20048;-56
2022/01/04 02:52:01;;;;;;;15.57;10.10;;;;;;;-5.94;79.20;99556.84;5072936;28;20476;-55
2022/01/04 02:54:27;;;;;;;6.40;4.67;;;;;;;-6.04;78.34;99522.84;5072391;28;20036;-56
2022/01/04 02:56:52;;;;;;;9.83;5.37;;;;;;;-5.88;78.23;99545.25;5071815;28;20051;-58
2022/01/04 02:59:18;;;;;;;7.07;4.90;;;;;;;-5.89;77.75;99535.84;5071993;28;20472;-58
2022/01/04 03:01:43;;;;;;;10.33;4.77;;;;;;;-5.98;77.96;99527.69;5072174;28;20036;-57
2022/01/04 03:04:09;;;;;;;8.60;5.07;;;;;;;-5.98;78.37;99532.84;5072302;28;20110;-62
2022/01/04 03:06:36;;;;;;;8.63;5.57;;;;;;;-6.00;78.21;99529.53;5072375;28;20123;-53
2022/01/04 03:09:04;;;;;;;8.02;4.80;;;;;;;-5.90;78.12;99541.94;5072756;28;20097;-56
2022/01/04 03:11:29;;;;;;;13.57;5.00;;;;;;;-5.95;78.59;99535.28;5072497;28;20462;-59
2022/01/04 03:13:55;;;;;;;11.33;6.10;;;;;;;-5.94;78.06;99547.31;5072303;28;20037;-58
2022/01/04 03:16:20;;;;;;;8.13;5.60;;;;;;;-6.01;78.32;99532.22;5072753;28;20032;-55
2022/01/04 03:19:03;;;;;;;7.07;5.50;;;;;;;-5.97;78.54;99546.66;5072035;28;20029;-62
2022/01/04 03:21:37;;;;;;;7.55;5.32;;;;;;;-5.97;78.35;99542.31;5071904;28;20044;-60
2022/01/04 03:24:04;;;;;;;9.75;6.38;;;;;;;-6.02;79.03;99538.31;5071706;28;20040;-59
2022/01/04 03:26:30;;;;;;;11.07;5.78;;;;;;;-6.08;78.42;99523.94;5071952;28;20032;-58
2022/01/04 03:28:56;;;;;;;10.30;8.17;;;;;;;-6.15;78.92;99517.44;5071702;28;20044;-57
2022/01/04 03:31:22;;;;;;;8.17;5.13;;;;;;;-6.39;78.76;99493.75;5071796;28;20044;-57
2022/01/04 03:33:48;;;;;;;7.77;5.00;;;;;;;-6.25;79.44;99500.75;5070410;28;20041;-55
2022/01/04 03:36:14;;;;;;;6.90;5.10;;;;;;;-6.07;79.29;99519.56;5071831;28;20488;-60
2022/01/04 03:38:41;;;;;;;10.20;5.45;;;;;;;-6.12;78.66;99504.28;5072072;28;20411;-57
2022/01/04 03:41:08;;;;;;;7.63;5.78;;;;;;;-6.12;79.11;99506.06;5071748;28;20503;-60
2022/01/04 03:43:34;;;;;;;7.80;5.28;;;;;;;-6.11;78.86;99511.16;5071737;28;20040;-58
2022/01/04 03:46:02;;;;;;;9.82;7.38;;;;;;;-5.96;79.43;99517.22;5071885;28;20500;-54
2022/01/04 03:48:27;;;;;;;10.63;7.88;;;;;;;-5.94;79.28;99508.41;5071571;28;20072;-61
2022/01/04 03:50:53;;;;;;;10.20;6.00;;;;;;;-5.76;78.39;99527.25;5071723;28;20499;-56
2022/01/04 03:53:18;;;;;;;6.57;4.57;;;;;;;-5.80;77.89;99520.53;5071961;28;20037;-53
2022/01/04 03:55:43;;;;;;;6.77;5.30;;;;;;;-5.93;78.19;99514.44;5071861;28;20047;-54
2022/01/04 03:58:10;;;;;;;8.60;6.00;;;;;;;-5.97;78.94;99516.38;5071673;28;20032;-56
2022/01/04 04:00:36;;;;;;;7.65;5.13;;;;;;;-6.02;79.07;99508.03;5071838;28;20033;-57
2022/01/04 04:03:01;;;;;;;9.30;6.53;;;;;;;-5.94;79.43;99513.59;5072149;28;20090;-52
2022/01/04 04:05:26;;;;;;;10.60;6.10;;;;;;;-5.95;79.29;99519.72;5071719;28;20039;-58
2022/01/04 04:07:52;;;;;;;8.50;6.07;;;;;;;-5.87;79.03;99515.81;5071337;28;20056;-56
2022/01/04 04:10:17;;;;;;;9.87;5.57;;;;;;;-5.90;79.53;99509.06;5071496;28;20048;-57
2022/01/04 04:12:43;;;;;;;6.40;5.47;;;;;;;-6.09;79.54;99479.94;5071694;28;20119;-60
2022/01/04 04:15:09;;;;;;;5.37;4.60;;;;;;;-5.94;78.74;99505.84;5071492;28;20028;-57
2022/01/04 04:17:35;;;;;;;6.63;5.20;;;;;;;-5.97;79.12;99503.41;5070325;28;20507;-55
2022/01/04 04:20:01;;;;;;;9.05;5.22;;;;;;;-5.96;79.14;99496.47;5071377;28;20262;-56
2022/01/04 04:22:27;;;;;;;9.57;5.43;;;;;;;-5.89;78.39;99494.34;5071354;28;20040;-58
2022/01/04 04:24:52;;;;;;;7.43;5.50;;;;;;;-5.90;78.55;99506.47;5071274;28;20035;-55
2022/01/04 04:27:18;;;;;;;5.97;4.27;;;;;;;-5.81;78.66;99515.44;5071352;28;20471;-59
2022/01/04 04:29:43;;;;;;;7.17;5.37;;;;;;;-5.95;78.86;99505.91;5071287;28;20082;-58
2022/01/04 04:32:10;;;;;;;7.37;5.83;;;;;;;-6.13;78.91;99478.47;5072368;28;20116;-58
2022/01/04 04:34:36;;;;;;;7.10;4.60;;;;;;;-5.86;78.74;99518.31;5071156;28;20515;-57
2022/01/04 04:37:02;;;;;;;6.80;4.97;;;;;;;-5.85;78.98;99504.41;5071105;28;20037;-61
2022/01/04 04:39:28;;;;;;;9.02;5.10;;;;;;;-5.90;78.54;99498.72;5070051;28;20033;-57
2022/01/04 04:41:53;;;;;;;6.33;4.77;;;;;;;-5.87;78.49;99492.47;5071427;28;20043;-58
2022/01/04 04:44:19;;;;;;;5.97;5.30;;;;;;;-5.95;78.50;99478.25;5071171;28;20032;-58
2022/01/04 04:46:47;;;;;;;7.27;4.87;;;;;;;-5.82;78.31;99503.41;5072876;28;20044;-59
2022/01/04 04:49:13;;;;;;;6.88;5.50;;;;;;;-5.81;78.31;99499.88;5074540;28;20055;-55
2022/01/04 04:51:39;;;;;;;5.75;4.88;;;;;;;-5.93;78.23;99473.78;5074542;28;20045;-60
2022/01/04 04:54:04;;;;;;;8.93;4.70;;;;;;;-5.85;78.62;99495.81;5074739;28;20033;-60
2022/01/04 04:56:30;;;;;;;7.87;5.27;;;;;;;-5.94;78.75;99484.25;5074684;28;20032;-56
2022/01/04 04:58:56;;;;;;;9.75;5.40;;;;;;;-5.93;78.71;99491.94;5074558;28;20133;-57
2022/01/04 05:01:22;;;;;;;6.63;4.77;;;;;;;-5.86;78.54;99496.72;5074647;28;20499;-56
2022/01/04 05:03:47;;;;;;;7.90;5.70;;;;;;;-5.95;78.51;99496.38;5074739;28;20062;-59
2022/01/04 05:06:13;;;;;;;6.40;4.40;;;;;;;-5.89;79.13;99487.38;5074177;28;20431;-58
2022/01/04 05:08:38;;;;;;;6.87;4.67;;;;;;;-5.91;78.93;99480.66;5074603;28;20032;-57
2022/01/04 05:11:04;;;;;;;6.90;5.07;;;;;;;-5.85;79.08;99488.03;5073295;28;20041;-60
2022/01/04 05:13:30;;;;;;;7.67;5.13;;;;;;;-5.90;78.67;99475.38;5074500;28;20434;-58
2022/01/04 05:15:55;;;;;;;8.10;5.30;;;;;;;-5.79;78.97;99503.22;5074424;28;20032;-58
2022/01/04 05:18:21;;;;;;;9.63;4.53;;;;;;;-5.81;78.53;99494.69;5073609;28;20438;-57
2022/01/04 05:20:46;;;;;;;8.67;4.80;;;;;;;-5.84;78.48;99487.94;5073945;28;20039;-58
2022/01/04 05:23:12;;;;;;;9.43;5.77;;;;;;;-5.84;78.17;99492.28;5073907;28;20074;-59
2022/01/04 05:25:37;;;;;;;5.67;5.07;;;;;;;-5.76;78.57;99497.88;5074198;28;20056;-53
2022/01/04 05:28:03;;;;;;;9.63;5.47;;;;;;;-5.72;78.93;99486.41;5074271;28;20085;-56
2022/01/04 05:30:29;;;;;;;9.10;5.60;;;;;;;-5.69;78.23;99496.59;5073925;28;20082;-59
2022/01/04 05:32:54;;;;;;;10.63;5.97;;;;;;;-5.68;78.01;99493.06;5074945;28;20476;-50
2022/01/04 05:35:20;;;;;;;6.57;4.80;;;;;;;-5.58;78.33;99498.53;5073817;28;20032;-59
2022/01/04 05:37:45;;;;;;;7.40;5.23;;;;;;;-5.50;77.33;99504.91;5074164;28;20114;-54
2022/01/04 05:40:11;;;;;;;9.20;5.83;;;;;;;-5.57;77.33;99502.78;5073613;28;20119;-56
2022/01/04 05:42:36;;;;;;;7.30;5.40;;;;;;;-5.68;77.43;99495.66;5072775;28;20041;-57
2022/01/04 05:45:02;;;;;;;6.87;5.27;;;;;;;-5.67;77.48;99498.16;5073623;28;20458;-51
2022/01/04 05:47:32;;;;;;;6.28;5.35;;;;;;;-5.75;77.92;99492.59;5074151;28;20048;-59
2022/01/04 05:49:57;;;;;;;9.70;5.57;;;;;;;-5.76;78.25;99482.31;5073154;28;20063;-58
2022/01/04 05:52:23;;;;;;;13.17;6.60;;;;;;;-5.63;78.21;99504.00;5073641;28;20527;-57
2022/01/04 05:54:49;;;;;;;6.83;5.57;;;;;;;-5.63;78.93;99496.22;5073406;28;20028;-61
2022/01/04 05:57:16;;;;;;;7.25;5.28;;;;;;;-5.62;79.12;99488.34;5073275;28;20039;-60
2022/01/04 05:59:41;;;;;;;6.25;5.00;;;;;;;-5.62;77.97;99477.97;5072347;28;20442;-57
2022/01/04 06:02:07;;;;;;;8.40;5.77;;;;;;;-5.66;78.30;99483.44;5073409;28;20032;-61
2022/01/04 06:04:33;;;;;;;8.20;6.10;;;;;;;-5.71;79.13;99480.28;5073248;28;20075;-60
2022/01/04 06:06:59;;;;;;;9.53;5.63;;;;;;;-5.67;79.74;99487.78;5073374;28;20040;-61
2022/01/04 06:09:28;;;;;;;11.67;6.87;;;;;;;-5.66;78.78;99489.44;5073016;28;20101;-53
2022/01/04 06:17:06;;;;;;;7.82;5.88;;;;;;;-5.96;80.06;99445.47;5073272;28;20082;-57
2022/01/04 06:19:32;;;;;;;9.48;6.57;;;;;;;-5.54;80.06;99487.88;5073275;28;20040;-56
2022/01/04 06:21:57;;;;;;;11.00;7.80;;;;;;;-5.56;78.95;99466.38;5073170;28;20037;-62
2022/01/04 06:24:23;;;;;;;11.13;6.67;;;;;;;-5.56;78.75;99474.16;5072952;28;20594;-60
2022/01/04 06:26:49;;;;;;;13.07;7.57;;;;;;;-5.93;78.88;99424.53;5072815;28;20036;-61
2022/01/04 06:29:14;;;;;;;8.17;5.63;;;;;;;-5.72;79.58;99473.44;5072525;28;20051;-59
2022/01/04 06:31:41;;;;;;;9.37;6.03;;;;;;;-6.00;79.77;99436.22;5072679;28;20040;-59
2022/01/04 06:34:08;;;;;;;8.98;6.22;;;;;;;-5.83;80.60;99486.19;5073139;28;20043;-58
2022/01/04 06:36:34;;;;;;;9.18;6.47;;;;;;;-5.86;80.73;99476.00;5072581;28;20411;-59
2022/01/04 06:38:59;;;;;;;14.10;8.43;;;;;;;-5.83;81.14;99468.03;5072781;28;20033;-58
2022/01/04 06:41:25;;;;;;;14.63;8.10;;;;;;;-5.70;80.50;99481.94;5072401;28;20051;-59
2022/01/04 06:43:50;;;;;;;14.00;5.77;;;;;;;-5.80;80.03;99465.25;5072452;28;20039;-57
2022/01/04 06:46:16;;;;;;;8.67;6.10;;;;;;;-5.66;80.42;99483.44;5072512;28;20095;-55
2022/01/04 06:48:43;;;;;;;10.55;7.22;;;;;;;-5.70;78.87;99472.41;5073585;28;20105;-57
2022/01/04 06:51:09;;;;;;;15.32;7.28;;;;;;;-5.77;79.78;99460.75;5072272;28;20079;-58
2022/01/04 06:53:35;;;;;;;13.50;9.17;;;;;;;-5.79;79.87;99472.09;5072433;28;20032;-60
2022/01/04 06:56:01;;;;;;;15.07;9.43;;;;;;;-5.78;79.58;99484.13;5073081;28;20034;-57
2022/01/04 06:58:26;;;;;;;32.07;15.10;;;;;;;-6.01;78.79;99444.91;5073638;28;20058;-56
2022/01/04 07:00:52;;;;;;;29.17;15.13;;;;;;;-5.79;79.89;99466.91;5072076;28;20115;-57
2022/01/04 07:03:18;;;;;;;35.00;17.63;;;;;;;-5.91;79.44;99441.75;5073132;28;20538;-55
2022/01/04 07:05:43;;;;;;;18.30;8.97;;;;;;;-5.73;78.50;99462.22;5072258;28;20526;-58
2022/01/04 07:08:09;;;;;;;10.03;6.70;;;;;;;-5.77;78.50;99460.75;5072174;28;20036;-57
2022/01/04 07:10:34;;;;;;;9.17;5.97;;;;;;;-5.75;78.54;99463.25;5071779;28;20032;-58
2022/01/04 07:12:59;;;;;;;12.70;6.23;;;;;;;-5.58;78.30;99475.19;5072098;28;20483;-54
2022/01/04 07:15:25;;;;;;;8.63;6.10;;;;;;;-5.93;77.88;99418.53;5072423;28;20106;-57
2022/01/04 07:17:51;;;;;;;12.43;6.67;;;;;;;-5.67;78.26;99455.81;5073046;28;20036;-58
2022/01/04 07:20:16;;;;;;;10.33;5.77;;;;;;;-5.53;78.13;99479.16;5072833;28;20106;-59
2022/01/04 07:22:42;;;;;;;7.97;7.17;;;;;;;-5.57;77.64;99462.13;5071994;28;20449;-61
2022/01/04 07:25:08;;;;;;;10.10;6.07;;;;;;;-5.46;77.14;99464.91;5071839;28;20044;-54
2022/01/04 07:27:33;;;;;;;11.07;6.80;;;;;;;-5.44;77.08;99463.06;5071890;28;20036;-58
2022/01/04 07:29:59;;;;;;;8.17;6.30;;;;;;;-5.46;77.79;99459.72;5071389;28;20033;-56
2022/01/04 07:32:25;;;;;;;11.05;7.43;;;;;;;-5.56;77.35;99437.84;5072160;28;20036;-57
2022/01/04 07:34:51;;;;;;;9.77;6.23;;;;;;;-5.47;77.25;99449.44;5072321;28;20456;-58
2022/01/04 07:37:17;;;;;;;14.53;7.83;;;;;;;-5.43;76.85;99458.69;5071860;28;20032;-57
2022/01/04 07:39:42;;;;;;;17.90;9.07;;;;;;;-5.45;77.09;99464.00;5071734;28;20028;-59
2022/01/04 07:42:08;;;;;;;22.00;12.03;;;;;;;-5.46;77.48;99454.53;5071608;28;20037;-58
2022/01/04 07:44:34;;;;;;;21.67;12.83;;;;;;;-5.34;77.28;99463.31;5071507;28;20028;-60
2022/01/04 07:47:00;;;;;;;18.73;11.52;;;;;;;-5.42;76.80;99450.00;5071502;28;20496;-58
2022/01/04 07:49:27;;;;;;;18.08;10.50;;;;;;;-5.40;77.38;99440.34;5072429;28;20056;-58
2022/01/04 07:51:53;;;;;;;14.70;9.40;;;;;;;-5.32;77.32;99445.91;5071837;28;20182;-57
2022/01/04 07:54:19;;;;;;;13.57;7.20;;;;;;;-5.31;76.96;99437.19;5071722;28;20047;-53
2022/01/04 07:56:44;;;;;;;13.48;7.03;;;;;;;-5.23;77.25;99439.28;5053555;28;20064;-55
2022/01/04 07:59:10;;;;;;;10.20;7.30;;;;;;;-5.14;76.50;99452.56;5069976;28;20131;-58
2022/01/04 08:01:36;;;;;;;11.90;6.90;;;;;;;-5.20;75.75;99442.56;5071700;28;20028;-59
2022/01/04 08:04:04;;;;;;;9.70;5.97;;;;;;;-5.23;76.11;99432.34;5072492;28;20482;-58
2022/01/04 08:06:29;;;;;;;13.10;8.43;;;;;;;-5.12;75.96;99444.66;5071849;28;20037;-57
2022/01/04 08:08:55;;;;;;;11.13;7.43;;;;;;;-5.14;76.06;99451.72;5071493;28;20051;-57
2022/01/04 08:11:21;;;;;;;9.40;6.57;;;;;;;-5.27;76.43;99440.41;5071401;28;20267;-58
2022/01/04 08:13:47;;;;;;;20.67;10.53;;;;;;;-5.53;76.56;99421.25;5071276;28;20098;-57
2022/01/04 08:16:15;;;;;;;14.93;9.10;;;;;;;-5.31;76.98;99463.97;5071602;28;20040;-59
2022/01/04 08:18:42;;;;;;;11.93;7.85;;;;;;;-5.52;76.69;99423.75;5072604;28;20029;-58
2022/01/04 08:21:07;;;;;;;16.13;10.18;;;;;;;-5.43;76.90;99453.50;5071501;28;20098;-61
2022/01/04 08:23:33;;;;;;;25.13;14.07;;;;;;;-5.43;76.29;99453.50;5075465;28;20115;-59
2022/01/04 08:25:58;;;;;;;16.97;11.13;;;;;;;-5.42;76.47;99450.81;5075331;28;20172;-60
2022/01/04 08:28:24;;;;;;;17.13;9.50;;;;;;;-5.47;76.07;99432.13;5075581;28;20036;-58
2022/01/04 08:30:50;;;;;;;15.23;9.50;;;;;;;-5.28;76.45;99456.91;5074419;28;20037;-59
2022/01/04 08:33:16;;;;;;;14.55;9.57;;;;;;;-5.30;75.81;99446.63;5076086;28;20037;-60
2022/01/04 08:35:41;;;;;;;13.07;8.47;;;;;;;-5.97;76.68;99334.09;5075614;28;20059;-62
2022/01/04 08:38:07;;;;;;;11.77;8.10;;;;;;;-5.24;77.08;99442.81;5075371;28;20480;-59
2022/01/04 08:40:33;;;;;;;11.73;7.13;;;;;;;-5.18;76.11;99426.88;5074737;28;20434;-60
2022/01/04 08:42:59;;;;;;;9.82;6.40;;;;;;;-4.96;76.15;99447.94;5074449;28;20465;-58
2022/01/04 08:45:26;;;;;;;11.63;7.77;;;;;;;-5.12;75.68;99414.34;5074760;28;20051;-57
2022/01/04 08:47:52;;;;;;;15.07;6.88;;;;;;;-5.04;75.34;99432.03;5074703;28;20646;-58
2022/01/04 08:50:20;;;;;;;13.85;8.00;;;;;;;-5.11;75.07;99435.94;5074486;28;20068;-61
2022/01/04 08:52:49;;;;;;;9.73;6.50;;;;;;;-5.43;76.14;99397.28;5074656;28;20044;-63
2022/01/04 08:55:15;;;;;;;13.32;7.55;;;;;;;-5.16;76.56;99419.84;5074378;28;20119;-62
2022/01/04 08:57:40;;;;;;;9.90;6.63;;;;;;;-5.05;75.68;99427.78;5074479;28;20124;-58
2022/01/04 09:00:08;;;;;;;10.13;6.70;;;;;;;-5.31;75.77;99383.50;5074511;28;20043;-61
2022/01/04 09:02:34;;;;;;;8.88;6.43;;;;;;;-5.38;75.86;99361.50;5074500;28;20036;-60
2022/01/04 09:05:01;;;;;;;11.90;7.72;;;;;;;-4.88;75.25;99424.94;5073409;28;20044;-58
2022/01/04 09:07:27;;;;;;;10.07;6.50;;;;;;;-4.92;75.36;99405.28;5074250;28;20051;-58
2022/01/04 09:09:52;;;;;;;13.10;6.93;;;;;;;-4.80;75.43;99421.84;5074259;28;20048;-59
2022/01/04 09:12:20;;;;;;;12.33;7.13;;;;;;;-4.97;75.38;99399.56;5074326;28;20040;-58
2022/01/04 09:20:03;;;;;;;12.35;8.10;;;;;;;-5.04;76.21;99409.50;5074445;28;20045;-63
2022/01/04 09:22:29;;;;;;;10.07;7.82;;;;;;;-4.97;76.98;99407.34;5074245;28;20082;-58
2022/01/04 09:24:54;;;;;;;14.30;8.73;;;;;;;-5.02;75.97;99394.66;5074709;28;20067;-59
2022/01/04 09:27:20;;;;;;;12.43;8.07;;;;;;;-5.01;76.07;99385.94;5074393;28;20411;-59
2022/01/04 09:29:45;;;;;;;14.57;9.17;;;;;;;-4.99;76.72;99394.44;5074101;28;20047;-57
2022/01/04 09:32:16;;;;;;;14.57;7.80;;;;;;;-5.05;76.97;99386.22;5073641;28;20043;-53
2022/01/04 09:34:43;;;;;;;14.50;8.02;;;;;;;-4.90;77.57;99400.00;5073931;28;20381;-62
2022/01/04 09:37:08;;;;;;;12.95;7.40;;;;;;;-4.86;77.53;99380.69;5074037;28;20032;-54
2022/01/04 09:39:34;;;;;;;12.70;7.97;;;;;;;-4.70;76.56;99391.75;5073941;28;20085;-58
2022/01/04 09:42:00;;;;;;;10.70;6.37;;;;;;;-5.01;76.28;99322.78;5073733;28;20086;-60
2022/01/04 09:44:27;;;;;;;10.85;7.05;;;;;;;-4.57;76.15;99377.03;5073621;28;20028;-58
2022/01/04 09:46:55;;;;;;;11.35;8.07;;;;;;;-4.68;76.92;99369.09;5071768;28;20503;-52
2022/01/04 09:49:21;;;;;;;9.75;6.82;;;;;;;-4.57;77.26;99376.22;5073242;28;20047;-58
2022/01/04 09:51:48;;;;;;;10.95;8.43;;;;;;;-4.55;76.31;99369.16;5072111;28;20044;-58
2022/01/04 09:54:21;;;;;;;10.95;7.60;;;;;;;-4.54;75.89;99378.59;5073527;28;20416;-59
2022/01/04 09:56:48;;;;;;;16.15;8.40;;;;;;;-4.58;76.92;99372.78;5073400;28;20043;-57
2022/01/04 09:59:14;;;;;;;9.88;7.68;;;;;;;-4.55;76.66;99374.34;5073030;28;20037;-59
2022/01/04 10:01:40;;;;;;;8.40;6.43;;;;;;;-4.58;76.34;99379.75;5071649;28;20035;-56
2022/01/04 10:04:06;;;;;;;12.65;8.13;;;;;;;-4.61;76.55;99395.53;5073251;28;20050;-57
2022/01/04 10:06:33;;;;;;;13.38;8.20;;;;;;;-4.76;76.94;99369.59;5073632;28;20043;-56
2022/01/04 10:09:00;;;;;;;10.52;6.85;;;;;;;-5.28;76.54;99296.03;5073466;28;20048;-57
2022/01/04 10:11:35;;;;;;;10.23;7.10;;;;;;;-4.70;76.61;99387.38;5073343;28;20062;-59
2022/01/04 10:14:24;;;;;;;13.82;8.00;;;;;;;-4.62;77.14;99380.88;5073345;28;20039;-61
2022/01/04 10:17:00;;;;;;;10.52;7.72;;;;;;;-4.58;77.11;99366.75;5073764;28;20069;-61
2022/01/04 10:19:31;;;;;;;11.98;8.57;;;;;;;-4.59;76.68;99373.72;5073402;28;20408;-55
2022/01/04 10:22:19;;;;;;;11.32;7.50;;;;;;;-4.63;77.11;99363.59;5073138;28;20064;-62
2022/01/04 10:25:08;;;;;;;13.10;8.15;;;;;;;-4.75;77.05;99342.69;5072838;28;20105;-60
2022/01/04 10:27:33;;;;;;;;;;;;;;;-4.60;76.81;99371.22;5073336;28;20036;-57
2022/01/04 10:30:27;;;;;;;12.33;7.37;;;;;;;-4.64;77.09;99372.31;5072740;28;19985;-60
2022/01/04 10:33:04;;;;;;;12.30;8.50;;;;;;;-4.75;76.88;99363.47;5072897;28;20040;-60
2022/01/04 10:35:34;;;;;;;10.73;8.07;;;;;;;-4.85;77.52;99331.25;5072448;28;20185;-56
2022/01/04 10:38:19;;;;;;;9.82;7.15;;;;;;;-4.55;77.04;99349.19;5072635;28;20054;-60
2022/01/04 10:40:47;;;;;;;10.75;7.40;;;;;;;-4.52;75.81;99342.97;5072216;28;20533;-54
2022/01/04 10:43:18;;;;;;;11.50;6.88;;;;;;;-4.58;76.99;99345.97;5072418;28;20086;-59
2022/01/04 10:45:45;;;;;;;13.50;8.38;;;;;;;-4.64;76.73;99349.78;5071948;28;20043;-57
2022/01/04 10:48:19;;;;;;;17.45;9.63;;;;;;;-4.71;76.68;99349.34;5072625;28;20095;-59
2022/01/04 10:50:49;;;;;;;11.23;8.32;;;;;;;-4.74;77.70;99328.78;5072856;28;20084;-59
2022/01/04 10:53:23;;;;;;;18.23;11.90;;;;;;;-4.97;77.23;99276.69;5072416;28;20041;-55
2022/01/04 10:55:50;;;;;;;18.98;12.63;;;;;;;-4.73;77.31;99314.03;5072648;28;20131;-56
2022/01/04 10:58:22;;;;;;;26.05;14.82;;;;;;;-4.68;77.70;99301.56;5072034;28;20392;-60
2022/01/04 11:01:09;;;;;;;27.23;14.15;;;;;;;-4.50;77.39;99300.34;5072488;28;20051;-57
2022/01/04 11:03:38;;;;;;;21.55;11.30;;;;;;;-4.62;76.10;99263.97;5073770;28;20142;-57
2022/01/04 11:06:27;;;;;;;16.60;10.88;;;;;;;-4.45;76.62;99287.03;5071630;28;20036;-60
2022/01/04 11:08:53;;;;;;;14.38;9.75;;;;;;;-4.41;76.20;99302.31;5073014;28;20033;-56
2022/01/04 11:11:19;;;;;;;12.05;8.95;;;;;;;-4.53;76.12;99305.75;5073503;28;20036;-55
2022/01/04 11:13:48;;;;;;;12.00;8.00;;;;;;;-4.63;76.61;99294.28;5072761;28;20135;-60
2022/01/04 11:16:14;;;;;;;12.07;7.88;;;;;;;-4.55;77.01;99306.78;5072258;28;20115;-59
2022/01/04 11:18:43;;;;;;;13.48;8.48;;;;;;;-4.93;77.11;99241.78;5072548;28;20040;-56
2022/01/04 11:21:12;;;;;;;15.57;9.80;;;;;;;-4.65;77.13;99290.13;5072232;28;20037;-57
2022/01/04 11:23:40;;;;;;;13.77;10.35;;;;;;;-4.69;77.90;99290.34;5072244;28;20139;-55
2022/01/04 11:26:06;;;;;;;20.45;12.18;;;;;;;-4.63;77.69;99288.25;5071998;28;20029;-56
2022/01/04 11:28:32;;;;;;;26.17;17.90;;;;;;;-4.54;77.11;99291.09;5072285;28;20051;-60
2022/01/04 11:31:07;;;;;;;28.20;15.90;;;;;;;-4.53;77.97;99278.94;5072921;28;20259;-60
2022/01/04 11:33:53;;;;;;;22.83;11.95;;;;;;;-4.52;78.74;99291.00;5071891;28;20514;-56
2022/01/04 11:36:20;;;;;;;15.50;10.43;;;;;;;-4.53;78.49;99278.94;5071863;28;20086;-58
2022/01/04 11:38:47;;;;;;;21.83;12.55;;;;;;;-4.59;78.91;99268.97;5071685;28;20523;-57
2022/01/04 11:41:25;;;;;;;19.67;11.90;;;;;;;-4.52;78.22;99281.44;5071702;28;20041;-59